createdAt,value
2022-11-05T00:01:22.054Z,99755.31
2022-11-05T00:04:07.152Z,99751.78
2022-11-05T00:06:54.584Z,99753.56
2022-11-05T00:09:30.029Z,99757.13
2022-11-05T00:12:16.814Z,99758.06
2022-11-05T00:15:02.053Z,99757.13
2022-11-05T00:17:28.630Z,99756.28
2022-11-05T00:19:55.174Z,99757.13
2022-11-05T00:22:40.255Z,99751.94
2022-11-05T00:25:19.443Z,99750.16
2022-11-05T00:27:50.721Z,99753.72
2022-11-05T00:30:24.703Z,99739.69
2022-11-05T00:32:51.829Z,99730.88
2022-11-05T00:35:20.950Z,99742.31
2022-11-05T00:37:50.415Z,99745.00
2022-11-05T00:40:17.434Z,99744.06
2022-11-05T00:43:02.882Z,99738.81
2022-11-05T00:45:30.173Z,99737.16
2022-11-05T00:48:15.261Z,99753.84
2022-11-05T00:50:41.908Z,99742.44
2022-11-05T00:53:08.624Z,99753.84
2022-11-05T00:55:42.825Z,99745.09
2022-11-05T00:58:14.521Z,99760.06
2022-11-05T01:00:42.775Z,99746.88
2022-11-05T01:03:11.315Z,99757.41
2022-11-05T01:05:42.866Z,99753.97
2022-11-05T01:08:09.911Z,99764.53
2022-11-05T01:10:43.207Z,99763.66
2022-11-05T01:13:12.940Z,99755.75
2022-11-05T01:15:40.139Z,99753.12
2022-11-05T01:18:06.810Z,99749.63
2022-11-05T01:20:33.456Z,99749.63
2022-11-05T01:23:00.047Z,99745.28
2022-11-05T01:25:26.663Z,99738.31
2022-11-05T01:27:53.213Z,99743.56
2022-11-05T01:30:19.907Z,99745.28
2022-11-05T01:32:47.632Z,99747.16
2022-11-05T01:35:15.521Z,99747.16
2022-11-05T01:37:42.187Z,99740.97
2022-11-05T01:40:10.900Z,99750.69
2022-11-05T01:42:37.497Z,99744.56
2022-11-05T01:45:06.961Z,99757.75
2022-11-05T01:48:03.098Z,99761.22
2022-11-05T01:50:44.730Z,99762.16
2022-11-05T01:53:14.151Z,99764.78
2022-11-05T01:55:43.630Z,99768.38
2022-11-05T01:58:13.469Z,99767.50
2022-11-05T02:00:40.511Z,99780.69
2022-11-05T02:03:07.311Z,99790.38
2022-11-05T02:05:33.947Z,99789.53
2022-11-05T02:08:03.330Z,99787.75
2022-11-05T02:10:29.885Z,99790.44
2022-11-05T02:12:59.497Z,99784.31
2022-11-05T02:15:55.385Z,99786.94
2022-11-05T02:18:33.257Z,99785.22
2022-11-05T02:21:21.226Z,99779.97
2022-11-05T02:23:57.567Z,99781.75
2022-11-05T02:26:40.176Z,99783.53
2022-11-05T02:29:18.952Z,99790.59
2022-11-05T02:31:51.635Z,99794.94
2022-11-05T02:34:22.365Z,99784.47
2022-11-05T02:36:54.531Z,99779.19
2022-11-05T02:39:30.104Z,99785.31
2022-11-05T02:42:06.566Z,99781.81
2022-11-05T02:44:51.919Z,99788.88
2022-11-05T02:47:27.596Z,99794.16
2022-11-05T02:50:00.143Z,99797.69
2022-11-05T02:52:45.256Z,99796.81
2022-11-05T02:55:34.470Z,99795.13
2022-11-05T02:58:03.353Z,99801.25
2022-11-05T03:00:57.005Z,99795.13
2022-11-05T03:03:27.752Z,99796.91
2022-11-05T03:06:20.575Z,99798.69
2022-11-05T03:09:02.818Z,99802.25
2022-11-05T03:11:30.883Z,99799.62
2022-11-05T03:14:16.294Z,99805.78
2022-11-05T03:16:43.614Z,99807.53
2022-11-05T03:19:41.875Z,99804.94
2022-11-05T03:22:13.828Z,99820.75
2022-11-05T03:24:46.443Z,99813.78
2022-11-05T03:27:14.649Z,99819.91
2022-11-05T03:29:43.354Z,99814.62
2022-11-05T03:32:09.974Z,99815.56
2022-11-05T03:34:43.024Z,99827.03
2022-11-05T03:37:09.629Z,99821.75
2022-11-05T03:39:41.806Z,99825.25
2022-11-05T03:42:09.996Z,99828.81
2022-11-05T03:44:37.041Z,99834.09
2022-11-05T03:47:11.500Z,99834.09
2022-11-05T03:49:39.796Z,99826.19
2022-11-05T03:52:09.069Z,99839.41
2022-11-05T03:54:35.690Z,99848.16
2022-11-05T03:57:10.860Z,99840.25
2022-11-05T03:59:44.744Z,99839.41
2022-11-05T04:02:12.411Z,99847.31
2022-11-05T04:04:39.142Z,99847.31
2022-11-05T04:07:24.547Z,99846.38
2022-11-05T04:10:09.712Z,99848.13
2022-11-05T04:12:55.110Z,99835.78
2022-11-05T04:15:21.689Z,99828.75
2022-11-05T04:17:48.252Z,99835.72
2022-11-05T04:20:33.703Z,99827.72
2022-11-05T04:23:20.260Z,99832.03
2022-11-05T04:25:46.844Z,99825.84
2022-11-05T04:28:13.589Z,99823.19
2022-11-05T04:30:40.223Z,99836.34
2022-11-05T04:33:14.861Z,99838.97
2022-11-05T04:35:43.265Z,99825.78
2022-11-05T04:38:13.139Z,99816.03
2022-11-05T04:40:39.705Z,99804.63
2022-11-05T04:43:13.609Z,99809.81
2022-11-05T04:45:41.633Z,99801.91
2022-11-05T04:48:08.324Z,99809.81
2022-11-05T04:50:34.889Z,99813.31
2022-11-05T04:53:01.465Z,99815.94
2022-11-05T04:55:28.482Z,99815.91
2022-11-05T04:57:55.210Z,99818.59
2022-11-05T05:00:22.565Z,99823.81
2022-11-05T05:02:49.179Z,99828.22
2022-11-05T05:05:18.137Z,99833.44
2022-11-05T05:07:44.682Z,99829.94
2022-11-05T05:10:11.409Z,99833.44
2022-11-05T05:12:37.979Z,99839.50
2022-11-05T05:15:04.760Z,99836.94
2022-11-05T05:17:31.421Z,99839.50
2022-11-05T05:20:16.806Z,99843.91
2022-11-05T05:22:43.373Z,99836.00
2022-11-05T05:25:10.101Z,99839.50
2022-11-05T05:27:36.661Z,99843.91
2022-11-05T05:30:03.617Z,99834.22
2022-11-05T05:32:30.235Z,99833.37
2022-11-05T05:34:56.840Z,99829.81
2022-11-05T05:37:23.398Z,99838.56
2022-11-05T05:39:50.015Z,99838.53
2022-11-05T05:42:16.637Z,99848.22
2022-11-05T05:44:43.217Z,99856.06
2022-11-05T05:47:09.814Z,99859.62
2022-11-05T05:49:36.394Z,99862.25
2022-11-05T05:52:03.092Z,99849.06
2022-11-05T05:54:33.472Z,99858.69
2022-11-05T05:57:01.600Z,99865.69
2022-11-05T05:59:28.197Z,99876.22
2022-11-05T06:01:54.860Z,99888.50
2022-11-05T06:04:21.620Z,99896.41
2022-11-05T06:06:48.304Z,99896.41
2022-11-05T06:09:15.115Z,99893.75
2022-11-05T06:11:41.743Z,99897.28
2022-11-05T06:14:12.463Z,99906.06
2022-11-05T06:16:39.526Z,99910.47
2022-11-05T06:19:06.704Z,99903.41
2022-11-05T06:21:33.297Z,99902.56
2022-11-05T06:24:00.153Z,99906.91
2022-11-05T06:26:27.231Z,99899.94
2022-11-05T06:28:53.794Z,99913.12
2022-11-05T06:31:20.457Z,99916.59
2022-11-05T06:33:47.349Z,99911.34
2022-11-05T06:36:15.305Z,99920.09
2022-11-05T06:38:41.922Z,99927.09
2022-11-05T06:41:10.475Z,99933.22
2022-11-05T06:43:37.471Z,99924.44
2022-11-05T06:46:04.170Z,99933.22
2022-11-05T06:48:30.812Z,99931.50
2022-11-05T06:50:57.379Z,99938.50
2022-11-05T06:53:23.976Z,99941.97
2022-11-05T06:55:50.646Z,99945.47
2022-11-05T06:58:17.221Z,99945.47
2022-11-05T07:00:43.864Z,99947.19
2022-11-05T07:03:11.353Z,99946.34
2022-11-05T07:05:45.750Z,99948.13
2022-11-05T07:08:12.344Z,99936.62
2022-11-05T07:10:39.091Z,99936.62
2022-11-05T07:13:08.474Z,99941.91
2022-11-05T07:15:35.715Z,99935.78
2022-11-05T07:18:02.402Z,99938.38
2022-11-05T07:20:33.517Z,99942.81
2022-11-05T07:23:04.734Z,99946.28
2022-11-05T07:25:32.337Z,99938.38
2022-11-05T07:27:58.899Z,99944.50
2022-11-05T07:30:25.513Z,99935.75
2022-11-05T07:32:52.096Z,99944.50
2022-11-05T07:35:18.660Z,99949.78
2022-11-05T07:37:46.007Z,99947.16
2022-11-05T07:40:13.102Z,99943.66
2022-11-05T07:42:43.849Z,99948.84
2022-11-05T07:45:11.057Z,99951.50
2022-11-05T07:47:58.560Z,99948.84
2022-11-05T07:50:26.117Z,99948.84
2022-11-05T07:52:52.793Z,99952.34
2022-11-05T07:55:19.762Z,99949.72
2022-11-05T07:57:47.636Z,99955.00
2022-11-05T08:00:15.765Z,99955.00
2022-11-05T08:02:42.875Z,99946.22
2022-11-05T08:05:09.961Z,99945.38
2022-11-05T08:07:36.551Z,99951.50
2022-11-05T08:10:04.304Z,99947.06
2022-11-05T08:12:31.826Z,99949.63
2022-11-05T08:14:58.424Z,99953.16
2022-11-05T08:17:25.033Z,99947.87
2022-11-05T08:19:51.581Z,99938.22
2022-11-05T08:22:18.120Z,99934.75
2022-11-05T08:24:44.665Z,99940.87
2022-11-05T08:27:11.205Z,99928.53
2022-11-05T08:29:37.994Z,99928.53
2022-11-05T08:32:04.586Z,99929.41
2022-11-05T08:34:31.118Z,99931.16
2022-11-05T08:36:59.889Z,99924.16
2022-11-05T08:39:26.441Z,99932.06
2022-11-05T08:41:52.995Z,99932.91
2022-11-05T08:44:19.548Z,99936.41
2022-11-05T08:46:46.117Z,99939.03
2022-11-05T08:49:12.647Z,99937.25
2022-11-05T08:51:39.237Z,99937.25
2022-11-05T08:54:05.817Z,99932.84
2022-11-05T08:56:32.413Z,99928.41
2022-11-05T08:58:58.974Z,99941.53
2022-11-05T09:01:25.662Z,99942.47
2022-11-05T09:03:52.448Z,99940.75
2022-11-05T09:06:20.426Z,99951.22
2022-11-05T09:08:47.040Z,99955.66
2022-11-05T09:11:13.598Z,99950.38
2022-11-05T09:13:40.333Z,99949.59
2022-11-05T09:16:07.023Z,99965.34
2022-11-05T09:18:33.692Z,99968.06
2022-11-05T09:21:00.262Z,99968.06
2022-11-05T09:23:26.836Z,99966.34
2022-11-05T09:25:53.390Z,99966.34
2022-11-05T09:28:21.343Z,99976.03
2022-11-05T09:30:49.585Z,99975.16
2022-11-05T09:33:17.388Z,99981.38
2022-11-05T09:35:44.063Z,99977.87
2022-11-05T09:38:10.665Z,99977.03
2022-11-05T09:41:05.231Z,99970.87
2022-11-05T09:43:43.589Z,99976.16
2022-11-05T09:46:24.550Z,99974.44
2022-11-05T09:48:57.147Z,99979.72
2022-11-05T09:51:24.396Z,99970.94
2022-11-05T09:53:51.393Z,99963.94
2022-11-05T09:56:24.095Z,99961.31
2022-11-05T09:58:59.357Z,99966.56
2022-11-05T10:01:28.713Z,99966.56
2022-11-05T10:03:57.158Z,99973.62
2022-11-05T10:06:24.945Z,99971.06
2022-11-05T10:08:57.477Z,99972.78
2022-11-05T10:11:29.047Z,99974.56
2022-11-05T10:14:23.495Z,99971.94
2022-11-05T10:16:53.911Z,99968.44
2022-11-05T10:19:31.100Z,99976.34
2022-11-05T10:22:06.947Z,99974.56
2022-11-05T10:24:33.917Z,99975.50
2022-11-05T10:27:00.689Z,99978.13
2022-11-05T10:29:32.358Z,99981.69
2022-11-05T10:32:00.083Z,99981.69
2022-11-05T10:34:29.169Z,99974.62
2022-11-05T10:36:55.921Z,99970.25
2022-11-05T10:39:23.511Z,99975.53
2022-11-05T10:41:59.268Z,99973.81
2022-11-05T10:44:25.757Z,99969.41
2022-11-05T10:47:01.265Z,99960.63
2022-11-05T10:49:43.417Z,99972.97
2022-11-05T10:52:23.249Z,99980.94
2022-11-05T10:54:50.909Z,99980.88
2022-11-05T10:57:50.046Z,99983.59
2022-11-05T11:00:16.683Z,99988.00
2022-11-05T11:02:43.386Z,99984.50
2022-11-05T11:05:39.557Z,99995.91
2022-11-05T11:08:09.155Z,100000.34
2022-11-05T11:10:42.381Z,99999.44
2022-11-05T11:13:23.183Z,100001.22
2022-11-05T11:15:51.071Z,99999.44
2022-11-05T11:18:34.578Z,100005.66
2022-11-05T11:21:17.602Z,100003.88
2022-11-05T11:23:44.508Z,100003.00
2022-11-05T11:26:11.345Z,99995.09
2022-11-05T11:28:48.939Z,99992.47
2022-11-05T11:31:17.389Z,99995.97
2022-11-05T11:33:45.751Z,99999.53
2022-11-05T11:36:12.295Z,99999.53
2022-11-05T11:38:38.965Z,99996.88
2022-11-05T11:41:11.515Z,99998.59
2022-11-05T11:43:40.071Z,99997.75
2022-11-05T11:46:16.634Z,99994.25
2022-11-05T11:48:47.755Z,100000.44
2022-11-05T11:51:34.270Z,100013.63
2022-11-05T11:54:01.160Z,100005.72
2022-11-05T11:56:29.027Z,100005.72
2022-11-05T11:58:57.179Z,100000.44
2022-11-05T12:01:32.766Z,99994.31
2022-11-05T12:04:25.286Z,99993.47
2022-11-05T12:07:04.997Z,99995.25
2022-11-05T12:09:59.497Z,99996.13
2022-11-05T12:12:32.410Z,99994.34
2022-11-05T12:15:02.823Z,99995.25
2022-11-05T12:17:52.505Z,99999.63
2022-11-05T12:20:48.645Z,100005.81
2022-11-05T12:23:37.538Z,100001.41
2022-11-05T12:26:35.590Z,100006.69
2022-11-05T12:29:35.904Z,100019.00
2022-11-05T12:32:24.809Z,100030.41
2022-11-05T12:35:02.200Z,100032.19
2022-11-05T12:37:57.896Z,100041.91
2022-11-05T12:40:47.153Z,100034.84
2022-11-05T12:43:36.188Z,100030.50
2022-11-05T12:46:21.348Z,100029.63
2022-11-05T12:48:52.347Z,100031.34
2022-11-05T12:51:57.568Z,100040.19
2022-11-05T12:54:47.024Z,100046.31
2022-11-05T12:57:14.049Z,100048.09
2022-11-05T12:59:45.968Z,100056.88
2022-11-05T13:02:29.456Z,100056.00
2022-11-05T13:05:18.004Z,100059.50
2022-11-05T13:08:07.591Z,100060.44
2022-11-05T13:10:37.024Z,100055.16
2022-11-05T13:13:37.226Z,100058.72
2022-11-05T13:16:23.038Z,100063.06
2022-11-05T13:18:54.009Z,100063.06
2022-11-05T13:21:23.342Z,100061.34
2022-11-05T13:24:06.185Z,100061.34
2022-11-05T13:26:39.890Z,100066.63
2022-11-05T13:29:14.480Z,100069.25
2022-11-05T13:31:43.821Z,100070.97
2022-11-05T13:34:11.400Z,100071.03
2022-11-05T13:37:17.224Z,100065.78
2022-11-05T13:39:56.310Z,100070.13
2022-11-05T13:42:49.718Z,100067.53
2022-11-05T13:45:22.129Z,100068.41
2022-11-05T13:48:19.248Z,100069.28
2022-11-05T13:50:56.515Z,100072.78
2022-11-05T13:53:36.270Z,100065.81
2022-11-05T13:56:24.711Z,100061.37
2022-11-05T13:59:03.430Z,100073.72
2022-11-05T14:01:54.193Z,100085.19
2022-11-05T14:04:36.231Z,100088.69
2022-11-05T14:07:12.909Z,100085.19
2022-11-05T14:09:39.875Z,100093.03
2022-11-05T14:12:07.656Z,100086.03
2022-11-05T14:14:44.969Z,100080.78
2022-11-05T14:17:32.729Z,100084.34
2022-11-05T14:20:02.340Z,100088.75
2022-11-05T14:22:31.612Z,100089.59
2022-11-05T14:25:03.024Z,100090.47
2022-11-05T14:27:29.440Z,100093.09
2022-11-05T14:29:56.010Z,100098.37
2022-11-05T14:32:25.095Z,100102.78
2022-11-05T14:34:56.832Z,100100.22
2022-11-05T14:37:25.390Z,100112.47
2022-11-05T14:39:53.168Z,100122.19
2022-11-05T14:42:29.111Z,100116.91
2022-11-05T14:44:55.515Z,100118.72
2022-11-05T14:47:22.730Z,100125.69
2022-11-05T14:50:04.604Z,100117.78
2022-11-05T14:52:31.172Z,100113.44
2022-11-05T14:54:57.822Z,100123.13
2022-11-05T14:57:42.672Z,100117.88
2022-11-05T15:00:45.546Z,100120.50
2022-11-05T15:03:28.376Z,100121.34
2022-11-05T15:06:04.941Z,100127.56
2022-11-05T15:08:37.534Z,100131.03
2022-11-05T15:11:25.787Z,100136.31
2022-11-05T15:13:55.352Z,100131.91
2022-11-05T15:16:48.026Z,100137.25
2022-11-05T15:19:35.047Z,100142.50
2022-11-05T15:22:04.839Z,100133.75
2022-11-05T15:24:31.450Z,100138.16
2022-11-05T15:27:34.478Z,100135.53
2022-11-05T15:30:20.832Z,100145.22
2022-11-05T15:32:47.281Z,100152.22
2022-11-05T15:35:23.458Z,100152.25
2022-11-05T15:37:54.540Z,100159.28
2022-11-05T15:40:30.653Z,100154.88
2022-11-05T15:43:11.306Z,100147.84
2022-11-05T15:45:38.084Z,100148.75
2022-11-05T15:48:15.631Z,100157.50
2022-11-05T15:50:42.503Z,100155.78
2022-11-05T15:53:37.510Z,100166.34
2022-11-05T15:56:29.111Z,100166.34
2022-11-05T15:59:06.961Z,100168.12
2022-11-05T16:01:35.260Z,100169.91
2022-11-05T16:04:25.907Z,100172.53
2022-11-05T16:06:55.234Z,100166.41
2022-11-05T16:09:27.158Z,100176.03
2022-11-05T16:12:19.861Z,100176.09
2022-11-05T16:14:59.237Z,100184.88
2022-11-05T16:17:28.077Z,100190.16
2022-11-05T16:19:54.716Z,100186.66
2022-11-05T16:22:21.404Z,100193.69
2022-11-05T16:24:48.110Z,100204.25
2022-11-05T16:27:19.952Z,100192.84
2022-11-05T16:29:54.608Z,100198.12
2022-11-05T16:32:29.747Z,100203.37
2022-11-05T16:34:59.328Z,100209.56
2022-11-05T16:37:26.233Z,100212.19
2022-11-05T16:39:52.955Z,100211.34
2022-11-05T16:42:22.132Z,100213.09
2022-11-05T16:44:49.382Z,100216.59
2022-11-05T16:47:15.948Z,100213.09
2022-11-05T16:49:42.522Z,100218.38
2022-11-05T16:52:09.659Z,100221.03
2022-11-05T16:54:39.336Z,100222.81
2022-11-05T16:57:07.960Z,100223.66
2022-11-05T16:59:34.546Z,100219.31
2022-11-05T17:02:01.277Z,100237.69
2022-11-05T17:04:27.914Z,100235.97
2022-11-05T17:06:54.478Z,100236.91
2022-11-05T17:09:21.074Z,100243.97
2022-11-05T17:11:47.706Z,100250.09
2022-11-05T17:14:14.285Z,100242.19
2022-11-05T17:16:41.021Z,100246.59
2022-11-05T17:19:09.489Z,100244.88
2022-11-05T17:21:36.713Z,100252.78
2022-11-05T17:24:03.389Z,100258.06
2022-11-05T17:26:29.956Z,100255.41
2022-11-05T17:28:56.518Z,100262.44
2022-11-05T17:31:23.087Z,100258.09
2022-11-05T17:33:49.674Z,100264.28
2022-11-05T17:36:16.364Z,100269.56
2022-11-05T17:38:43.028Z,100263.44
2022-11-05T17:41:13.351Z,100273.97
2022-11-05T17:43:39.994Z,100263.44
2022-11-05T17:46:08.851Z,100267.84
2022-11-05T17:48:36.510Z,100266.97
2022-11-05T17:51:03.025Z,100273.12
2022-11-05T17:53:29.638Z,100278.38
2022-11-05T17:55:56.247Z,100283.66
2022-11-05T17:58:22.895Z,100277.53
2022-11-05T18:00:49.500Z,100285.44
2022-11-05T18:03:16.371Z,100285.44
2022-11-05T18:05:43.178Z,100279.31
2022-11-05T18:08:09.818Z,100285.44
2022-11-05T18:10:37.689Z,100281.97
2022-11-05T18:13:04.328Z,100283.69
2022-11-05T18:15:30.969Z,100281.97
2022-11-05T18:17:57.701Z,100292.50
2022-11-05T18:20:24.344Z,100295.16
2022-11-05T18:22:51.202Z,100296.06
2022-11-05T18:25:18.140Z,100306.62
2022-11-05T18:27:44.683Z,100308.34
2022-11-05T18:30:14.095Z,100310.09
2022-11-05T18:32:41.433Z,100315.44
2022-11-05T18:35:08.377Z,100318.09
2022-11-05T18:37:34.970Z,100326.00
2022-11-05T18:40:01.583Z,100319.84
2022-11-05T18:42:28.171Z,100325.13
2022-11-05T18:44:54.725Z,100334.81
2022-11-05T18:47:21.332Z,100339.19
2022-11-05T18:49:47.886Z,100351.53
2022-11-05T18:52:14.476Z,100347.09
2022-11-05T18:54:41.136Z,100345.37
2022-11-05T18:57:07.704Z,100346.25
2022-11-05T18:59:38.175Z,100354.16
2022-11-05T19:02:06.094Z,100357.72
2022-11-05T19:04:32.868Z,100358.56
2022-11-05T19:07:04.501Z,100357.72
2022-11-05T19:09:32.259Z,100362.13
2022-11-05T19:11:58.829Z,100363.91
2022-11-05T19:14:25.528Z,100371.81
2022-11-05T19:16:52.100Z,100367.41
2022-11-05T19:19:18.840Z,100368.31
2022-11-05T19:21:45.404Z,100375.38
2022-11-05T19:24:16.685Z,100374.44
2022-11-05T19:26:43.749Z,100377.13
2022-11-05T19:29:10.310Z,100381.56
2022-11-05T19:31:37.056Z,100382.41
2022-11-05T19:34:05.414Z,100393.84
2022-11-05T19:36:32.213Z,100391.19
2022-11-05T19:39:00.346Z,100393.81
2022-11-05T19:41:27.274Z,100395.63
2022-11-05T19:43:54.384Z,100401.75
2022-11-05T19:46:22.012Z,100407.91
2022-11-05T19:48:48.558Z,100407.03
2022-11-05T19:51:25.581Z,100408.78
2022-11-05T19:53:52.874Z,100411.44
2022-11-05T19:56:24.077Z,100419.34
2022-11-05T19:58:50.658Z,100420.25
2022-11-05T20:01:18.249Z,100424.66
2022-11-05T20:03:45.052Z,100429.09
2022-11-05T20:06:13.799Z,100427.31
2022-11-05T20:08:59.893Z,100436.13
2022-11-05T20:11:27.056Z,100442.25
2022-11-05T20:13:53.674Z,100438.78
2022-11-05T20:16:21.839Z,100449.31
2022-11-05T20:18:48.583Z,100443.19
2022-11-05T20:21:15.193Z,100444.97
2022-11-05T20:23:41.787Z,100451.09
2022-11-05T20:26:08.829Z,100447.59
2022-11-05T20:28:35.555Z,100457.25
2022-11-05T20:31:15.832Z,100455.50
2022-11-05T20:33:42.552Z,100454.59
2022-11-05T20:36:20.091Z,100465.16
2022-11-05T20:38:55.327Z,100462.50
2022-11-05T20:41:22.131Z,100467.78
2022-11-05T20:43:48.821Z,100469.56
2022-11-05T20:46:16.902Z,100467.78
2022-11-05T20:48:43.755Z,100474.03
2022-11-05T20:51:12.246Z,100466.97
2022-11-05T20:53:38.920Z,100464.34
2022-11-05T20:56:08.546Z,100481.03
2022-11-05T20:58:36.035Z,100476.66
2022-11-05T21:01:02.623Z,100477.53
2022-11-05T21:03:29.166Z,100479.31
2022-11-05T21:06:00.027Z,100481.94
2022-11-05T21:08:27.436Z,100481.94
2022-11-05T21:10:54.379Z,100492.53
2022-11-05T21:13:20.930Z,100484.63
2022-11-05T21:15:51.992Z,100480.22
2022-11-05T21:18:19.444Z,100488.97
2022-11-05T21:20:46.461Z,100491.63
2022-11-05T21:23:13.296Z,100493.41
2022-11-05T21:25:40.490Z,100493.41
2022-11-05T21:28:07.725Z,100488.13
2022-11-05T21:30:36.066Z,100492.53
2022-11-05T21:33:02.659Z,100496.91
2022-11-05T21:35:29.223Z,100492.53
2022-11-05T21:37:55.845Z,100494.28
2022-11-05T21:40:22.386Z,100485.50
2022-11-05T21:42:48.950Z,100493.41
2022-11-05T21:45:15.684Z,100494.28
2022-11-05T21:47:42.268Z,100494.34
2022-11-05T21:50:08.870Z,100485.56
2022-11-05T21:52:53.704Z,100494.34
2022-11-05T21:55:40.637Z,100498.75
2022-11-05T21:58:35.030Z,100495.25
2022-11-05T22:01:01.714Z,100495.25
2022-11-05T22:03:28.331Z,100496.09
2022-11-05T22:05:56.038Z,100501.37
2022-11-05T22:08:22.616Z,100503.16
2022-11-05T22:10:49.225Z,100497.87
2022-11-05T22:13:15.798Z,100498.81
2022-11-05T22:15:42.417Z,100495.31
2022-11-05T22:18:09.171Z,100500.56
2022-11-05T22:20:38.741Z,100491.81
2022-11-05T22:23:10.059Z,100498.81
2022-11-05T22:25:37.753Z,100502.34
2022-11-05T22:28:04.580Z,100497.09
2022-11-05T22:30:34.620Z,100504.09
2022-11-05T22:33:01.257Z,100506.72
2022-11-05T22:35:27.814Z,100500.59
2022-11-05T22:37:54.383Z,100502.38
2022-11-05T22:40:23.850Z,100497.97
2022-11-05T22:42:50.782Z,100507.66
2022-11-05T22:45:17.389Z,100509.41
2022-11-05T22:47:43.975Z,100512.91
2022-11-05T22:50:10.543Z,100504.16
2022-11-05T22:52:37.131Z,100515.56
2022-11-05T22:55:06.304Z,100512.91
2022-11-05T22:57:33.023Z,100508.56
2022-11-05T22:59:59.602Z,100512.97
2022-11-05T23:02:28.284Z,100516.47
2022-11-05T23:04:54.989Z,100519.97
2022-11-05T23:07:40.246Z,100515.59
2022-11-05T23:10:25.738Z,100520.00
2022-11-05T23:12:53.168Z,100515.59
2022-11-05T23:15:39.986Z,100519.16
2022-11-05T23:18:26.951Z,100517.38
2022-11-05T23:21:11.996Z,100515.59
2022-11-05T23:23:56.776Z,100522.66
2022-11-05T23:26:41.516Z,100524.44
2022-11-05T23:29:08.132Z,100527.06
2022-11-05T23:31:53.290Z,100527.94
2022-11-05T23:34:19.899Z,100531.47
2022-11-05T23:37:05.078Z,100535.84
2022-11-05T23:39:31.710Z,100539.41
2022-11-05T23:42:17.054Z,100535.00
2022-11-05T23:45:02.189Z,100542.03
2022-11-05T23:47:47.332Z,100535.03
2022-11-05T23:50:14.003Z,100535.03
2022-11-05T23:52:40.538Z,100537.69
2022-11-05T23:55:07.401Z,100542.94
2022-11-05T23:57:33.938Z,100542.03
